Time;durP1;ratioP1;P1;durP2;ratioP2;P2;SDS_P1;SDS_P2;PMS_P1;PMS_P2;Temp;Humidity;BMP_temperature;BMP_pressure;BME280_temperature;BME280_humidity;BME280_pressure;Samples;Min_cycle;Max_cycle;Signal;HPM_P1;HPM_P2
2022/04/18 00:00:14;;;;;;;3.53;1.53;;;6.10;99.90;;;;;;6239447;28;20293;-77
2022/04/18 00:03:21;;;;;;;1.93;1.90;;;6.10;99.90;;;;;;6238873;28;20292;-76
2022/04/18 00:06:28;;;;;;;1.50;1.50;;;6.10;99.90;;;;;;6239576;28;20281;-77
2022/04/18 00:09:34;;;;;;;1.67;1.57;;;6.10;99.90;;;;;;6238878;28;20582;-77
2022/04/18 00:12:39;;;;;;;1.50;1.50;;;6.00;99.90;;;;;;6214324;28;20308;-77
2022/04/18 00:15:44;;;;;;;1.70;1.40;;;6.00;99.90;;;;;;6215067;28;20600;-76
2022/04/18 00:18:49;;;;;;;1.70;1.70;;;6.10;99.90;;;;;;6214445;28;20301;-77
2022/04/18 00:21:57;;;;;;;1.70;1.60;;;6.00;99.90;;;;;;6214488;28;20273;-77
2022/04/18 00:25:02;;;;;;;1.50;1.50;;;6.00;99.90;;;;;;6214856;28;20273;-77
2022/04/18 00:28:08;;;;;;;1.67;1.63;;;6.00;99.90;;;;;;6214346;28;20308;-77
2022/04/18 00:31:13;;;;;;;1.60;1.60;;;6.00;99.90;;;;;;6197406;28;20276;-77
2022/04/18 00:34:19;;;;;;;4.10;1.60;;;6.00;99.90;;;;;;6196876;28;20469;-76
2022/04/18 00:37:25;;;;;;;1.87;1.80;;;6.00;99.90;;;;;;6214484;28;20352;-77
2022/04/18 00:40:30;;;;;;;1.80;1.70;;;5.90;99.90;;;;;;6197345;28;20273;-77
2022/04/18 00:43:41;;;;;;;2.83;1.73;;;5.90;99.90;;;;;;6214086;28;20595;-77
2022/04/18 00:46:47;;;;;;;1.90;1.90;;;5.90;99.90;;;;;;6214609;28;20281;-77
2022/04/18 00:49:53;;;;;;;1.90;1.80;;;5.90;99.90;;;;;;6212245;28;20285;-77
2022/04/18 00:53:01;;;;;;;1.60;1.50;;;5.90;99.90;;;;;;6213680;28;20302;-77
2022/04/18 00:56:08;;;;;;;2.03;1.80;;;5.90;99.90;;;;;;6196800;28;20317;-77
2022/04/18 00:59:14;;;;;;;1.77;1.67;;;5.90;99.90;;;;;;6196567;28;20300;-77
2022/04/18 01:02:20;;;;;;;2.63;1.80;;;5.90;99.90;;;;;;6196416;28;20467;-77
2022/04/18 01:05:26;;;;;;;1.50;1.40;;;5.90;99.90;;;;;;6212278;28;20277;-75
2022/04/18 01:08:35;;;;;;;2.00;1.90;;;5.80;99.90;;;;;;6213098;28;20564;-77
2022/04/18 01:11:40;;;;;;;2.47;2.00;;;5.80;99.90;;;;;;6230686;28;20568;-77
2022/04/18 01:15:08;;;;;;;1.83;1.83;;;5.80;99.90;;;;;;6237013;28;20288;-78
2022/04/18 01:18:36;;;;;;;3.70;1.60;;;5.90;99.90;;;;;;6229663;28;20329;-77
2022/04/18 01:22:06;;;;;;;1.60;1.60;;;5.80;99.90;;;;;;6226886;28;20280;-77
2022/04/18 01:29:05;;;;;;;2.00;1.90;;;5.80;99.90;;;;;;6219646;28;20296;-76
2022/04/18 01:32:14;;;;;;;1.70;1.60;;;5.80;99.90;;;;;;6220090;28;20563;-77
2022/04/18 01:35:19;;;;;;;2.20;1.60;;;5.80;99.90;;;;;;6237338;28;20272;-76
2022/04/18 01:38:27;;;;;;;1.60;1.57;;;5.80;99.90;;;;;;6219683;28;20454;-77
2022/04/18 01:41:33;;;;;;;1.60;1.60;;;5.70;99.90;;;;;;6220039;28;20280;-77
2022/04/18 01:44:39;;;;;;;2.63;1.50;;;5.70;99.90;;;;;;6219144;28;20296;-77
2022/04/18 01:47:45;;;;;;;1.57;1.57;;;5.70;99.90;;;;;;6235323;28;20468;-77
2022/04/18 01:50:52;;;;;;;1.67;1.67;;;5.70;99.90;;;;;;6219743;28;20272;-77
2022/04/18 01:54:00;;;;;;;2.43;1.90;;;5.60;99.90;;;;;;6219026;28;20397;-77
2022/04/18 01:57:07;;;;;;;1.70;1.60;;;5.60;99.90;;;;;;6219004;28;20296;-75
2022/04/18 02:00:13;;;;;;;1.67;1.67;;;5.60;99.90;;;;;;6235870;28;20352;-77
2022/04/18 02:03:21;;;;;;;1.80;1.70;;;5.60;99.90;;;;;;6218607;28;20299;-75
2022/04/18 02:06:26;;;;;;;1.80;1.80;;;5.60;99.90;;;;;;6236652;28;20275;-75
2022/04/18 02:09:33;;;;;;;1.67;1.60;;;5.50;99.90;;;;;;6217217;28;20307;-75
2022/04/18 02:12:38;;;;;;;1.77;1.67;;;5.50;99.90;;;;;;6210945;28;20317;-76
2022/04/18 02:15:45;;;;;;;1.90;1.80;;;5.50;99.90;;;;;;6227304;28;20278;-76
2022/04/18 02:18:50;;;;;;;2.13;2.10;;;5.50;99.90;;;;;;6226977;28;20307;-75
2022/04/18 02:21:56;;;;;;;2.00;1.70;;;5.50;99.90;;;;;;6226440;28;20273;-75
2022/04/18 02:25:03;;;;;;;1.67;1.67;;;5.50;99.90;;;;;;6210897;28;20276;-76
2022/04/18 02:28:11;;;;;;;1.90;1.80;;;5.40;99.90;;;;;;6210475;28;20502;-76
2022/04/18 02:31:25;;;;;;;1.50;1.50;;;5.40;99.90;;;;;;6227362;28;20276;-76
2022/04/18 02:34:30;;;;;;;1.63;1.60;;;5.50;99.90;;;;;;6210629;28;20296;-76
2022/04/18 02:37:37;;;;;;;1.90;1.60;;;5.50;99.90;;;;;;6210311;28;20304;-75
2022/04/18 02:40:44;;;;;;;2.00;1.80;;;5.40;99.90;;;;;;6212240;28;20281;-76
2022/04/18 02:43:50;;;;;;;2.30;1.70;;;5.40;99.90;;;;;;6210495;28;20558;-75
2022/04/18 02:46:55;;;;;;;1.57;1.47;;;5.40;99.90;;;;;;6210679;28;20276;-76
2022/04/18 02:50:02;;;;;;;1.80;1.80;;;5.30;99.90;;;;;;6215884;28;20279;-76
2022/04/18 02:53:08;;;;;;;1.87;1.53;;;5.30;99.90;;;;;;6216467;28;20297;-75
2022/04/18 02:56:40;;;;;;;1.80;1.80;;;5.40;99.90;;;;;;6215865;28;20277;-75
2022/04/18 02:59:46;;;;;;;2.13;2.00;;;5.40;99.90;;;;;;6231001;28;20591;-76
2022/04/18 03:02:51;;;;;;;1.70;1.70;;;5.40;99.90;;;;;;6231984;28;20292;-76
2022/04/18 03:05:57;;;;;;;4.40;1.80;;;5.40;99.90;;;;;;6220137;28;20268;-76
2022/04/18 03:09:02;;;;;;;2.93;2.20;;;5.40;99.90;;;;;;6222521;28;20303;-76
2022/04/18 03:12:10;;;;;;;2.10;1.90;;;5.40;99.90;;;;;;6214476;28;20295;-75
2022/04/18 03:15:15;;;;;;;5.07;2.67;;;5.40;99.90;;;;;;6215060;28;20276;-76
2022/04/18 03:18:21;;;;;;;2.63;2.30;;;5.40;99.90;;;;;;6214314;28;20312;-76
2022/04/18 03:21:26;;;;;;;2.87;2.30;;;5.30;99.90;;;;;;6214737;28;20273;-76
2022/04/18 03:24:35;;;;;;;1.67;1.67;;;5.40;99.90;;;;;;6230770;28;20588;-75
2022/04/18 03:27:52;;;;;;;1.93;1.60;;;5.40;99.90;;;;;;6214029;28;20303;-76
2022/04/18 03:30:58;;;;;;;1.73;1.63;;;5.30;99.90;;;;;;6230810;28;20359;-76
2022/04/18 03:34:03;;;;;;;1.80;1.80;;;5.30;99.90;;;;;;6230309;28;20297;-76
2022/04/18 03:40:35;;;;;;;1.90;1.90;;;5.30;99.90;;;;;;6216085;28;20512;-76
2022/04/18 03:43:43;;;;;;;1.80;1.80;;;5.30;99.90;;;;;;6213983;28;20470;-76
2022/04/18 03:46:49;;;;;;;2.00;1.90;;;5.30;99.90;;;;;;6230486;28;20276;-75
2022/04/18 03:49:54;;;;;;;1.90;1.80;;;5.30;99.90;;;;;;6213702;28;20336;-75
2022/04/18 03:52:59;;;;;;;2.80;2.60;;;5.30;99.90;;;;;;6229871;28;20316;-75
2022/04/18 03:56:12;;;;;;;1.87;1.87;;;5.30;99.90;;;;;;6213850;28;20273;-75
2022/04/18 03:59:37;;;;;;;1.77;1.77;;;5.20;99.90;;;;;;6214326;28;20305;-76
2022/04/18 04:02:43;;;;;;;1.70;1.70;;;5.30;99.90;;;;;;6214676;28;20291;-75
2022/04/18 04:05:55;;;;;;;1.90;1.80;;;5.30;99.90;;;;;;6213984;28;20269;-76
2022/04/18 04:09:01;;;;;;;2.00;1.90;;;5.30;99.90;;;;;;6213092;28;20476;-76
2022/04/18 04:12:11;;;;;;;2.00;1.90;;;5.30;99.90;;;;;;6212994;28;20572;-76
2022/04/18 04:15:47;;;;;;;1.73;1.73;;;5.20;99.90;;;;;;6197736;28;20275;-76
2022/04/18 04:19:00;;;;;;;1.77;1.77;;;5.20;99.90;;;;;;6196971;28;20312;-76
2022/04/18 04:22:06;;;;;;;1.97;1.97;;;5.30;99.90;;;;;;6212948;28;20543;-76
2022/04/18 04:25:14;;;;;;;2.23;2.10;;;5.30;99.90;;;;;;6197373;28;20275;-76
2022/04/18 04:28:32;;;;;;;2.00;1.90;;;5.30;99.90;;;;;;6213527;28;20312;-76
2022/04/18 04:31:39;;;;;;;2.30;2.20;;;5.30;99.90;;;;;;6196942;28;20276;-75
2022/04/18 04:34:45;;;;;;;2.53;2.30;;;5.40;99.90;;;;;;6196610;28;20479;-75
2022/04/18 04:38:06;;;;;;;2.00;1.90;;;5.40;99.90;;;;;;6196441;28;20303;-77
2022/04/18 04:41:24;;;;;;;1.93;1.87;;;5.50;99.90;;;;;;6196760;28;20280;-76
2022/04/18 04:44:34;;;;;;;3.80;1.80;;;5.50;99.90;;;;;;6196623;28;20298;-76
2022/04/18 04:47:44;;;;;;;2.00;1.90;;;5.50;99.90;;;;;;6212278;28;20461;-76
2022/04/18 04:50:50;;;;;;;2.73;2.07;;;5.50;99.90;;;;;;6212805;28;20279;-76
2022/04/18 04:53:55;;;;;;;1.90;1.80;;;5.50;99.90;;;;;;6212275;28;20335;-76
2022/04/18 04:57:11;;;;;;;1.90;1.80;;;5.60;99.90;;;;;;6196393;28;20276;-77
2022/04/18 05:00:36;;;;;;;1.97;1.87;;;5.60;99.90;;;;;;6213426;28;20296;-76
2022/04/18 05:03:53;;;;;;;2.73;1.90;;;5.60;99.90;;;;;;6212040;28;20301;-76
2022/04/18 05:07:00;;;;;;;2.13;2.03;;;5.60;99.90;;;;;;6196178;28;20293;-76
2022/04/18 05:10:24;;;;;;;1.90;1.90;;;5.70;99.90;;;;;;6198212;28;20300;-76
2022/04/18 05:13:30;;;;;;;1.47;1.47;;;5.70;99.90;;;;;;6237584;28;20296;-77
2022/04/18 05:16:36;;;;;;;2.93;2.17;;;5.70;99.90;;;;;;6220370;28;20278;-76
2022/04/18 05:20:12;;;;;;;2.80;1.73;;;5.70;99.90;;;;;;6235834;28;20296;-76
2022/04/18 05:23:21;;;;;;;1.97;1.97;;;5.80;99.90;;;;;;6235826;28;20299;-76
2022/04/18 05:26:31;;;;;;;2.17;2.00;;;5.80;99.90;;;;;;6236413;28;20280;-76
2022/04/18 05:29:36;;;;;;;2.13;1.73;;;5.80;99.90;;;;;;6235798;28;20320;-77
2022/04/18 05:32:43;;;;;;;2.57;2.00;;;5.90;99.90;;;;;;6235830;28;20291;-76
2022/04/18 05:35:50;;;;;;;2.30;2.23;;;5.90;99.90;;;;;;6236363;28;20284;-76
2022/04/18 05:38:59;;;;;;;2.17;2.00;;;6.00;99.90;;;;;;6235687;28;20299;-76
2022/04/18 05:42:11;;;;;;;2.27;2.17;;;6.00;99.90;;;;;;6236917;28;20275;-76
2022/04/18 05:45:19;;;;;;;2.00;2.00;;;6.00;99.90;;;;;;6220042;28;20272;-76
2022/04/18 05:48:34;;;;;;;2.93;2.00;;;6.10;99.90;;;;;;6219143;28;20296;-76
2022/04/18 05:51:40;;;;;;;2.00;1.97;;;6.10;99.90;;;;;;6236191;28;20283;-76
2022/04/18 05:54:45;;;;;;;3.13;2.20;;;6.20;99.90;;;;;;6218962;28;20299;-75
2022/04/18 05:57:52;;;;;;;2.10;2.00;;;6.20;99.90;;;;;;6219354;28;20296;-75
2022/04/18 06:00:57;;;;;;;2.70;2.50;;;6.30;99.90;;;;;;6236705;28;20295;-76
2022/04/18 06:04:03;;;;;;;2.40;2.20;;;6.40;99.90;;;;;;6218693;28;20607;-76
2022/04/18 06:07:12;;;;;;;3.33;2.00;;;6.40;99.90;;;;;;6219059;28;20284;-76
2022/04/18 06:10:18;;;;;;;1.80;1.77;;;6.50;99.90;;;;;;6218743;28;20491;-76
2022/04/18 06:13:25;;;;;;;4.80;1.93;;;6.60;99.90;;;;;;6218658;28;20488;-76
2022/04/18 06:16:31;;;;;;;1.87;1.77;;;6.70;99.90;;;;;;6218647;28;20277;-75
2022/04/18 06:19:36;;;;;;;2.23;1.90;;;6.80;99.90;;;;;;6236025;28;20296;-76
2022/04/18 06:22:45;;;;;;;2.00;1.90;;;6.90;99.90;;;;;;6218789;28;20288;-76
2022/04/18 06:25:52;;;;;;;1.90;1.80;;;7.00;99.90;;;;;;6219198;28;20272;-76
2022/04/18 06:28:58;;;;;;;2.10;1.97;;;7.20;99.90;;;;;;6218487;28;20316;-76
2022/04/18 06:32:05;;;;;;;2.10;2.00;;;7.30;99.90;;;;;;6235935;28;20331;-76
2022/04/18 06:35:12;;;;;;;1.73;1.63;;;7.40;99.90;;;;;;6235618;28;20280;-76
2022/04/18 06:38:19;;;;;;;4.80;2.17;;;7.60;99.90;;;;;;6218249;28;20296;-77
2022/04/18 06:41:40;;;;;;;1.93;1.93;;;7.70;99.90;;;;;;6218742;28;20292;-77
2022/04/18 06:44:46;;;;;;;1.80;1.70;;;7.90;99.90;;;;;;6218252;28;20296;-77
2022/04/18 06:47:52;;;;;;;4.43;2.00;;;8.10;99.90;;;;;;6234177;28;20296;-76
2022/04/18 06:51:15;;;;;;;1.67;1.55;;;8.20;99.90;;;;;;6218706;28;20559;-77
2022/04/18 06:54:40;;;;;;;1.60;1.60;;;8.60;99.90;;;;;;6235632;28;20296;-77
2022/04/18 06:57:50;;;;;;;2.03;1.92;;;9.00;99.90;;;;;;6218102;28;20296;-76
2022/04/18 07:00:56;;;;;;;3.75;1.70;;;9.70;99.90;;;;;;6218610;28;20324;-77
2022/04/18 07:04:02;;;;;;;2.35;1.95;;;9.90;99.90;;;;;;6218391;28;20292;-77
2022/04/18 07:07:08;;;;;;;1.73;1.52;;;9.80;99.90;;;;;;6234121;28;20552;-77
2022/04/18 07:10:14;;;;;;;2.42;1.70;;;9.70;99.90;;;;;;6215925;28;20296;-78
2022/04/18 07:13:20;;;;;;;1.70;1.60;;;9.70;99.90;;;;;;6218269;28;20296;-77
2022/04/18 07:16:29;;;;;;;2.67;1.60;;;9.70;99.90;;;;;;6234879;28;20556;-77
2022/04/18 07:19:36;;;;;;;1.80;1.70;;;9.80;99.90;;;;;;6217687;28;20300;-77
2022/04/18 07:22:48;;;;;;;5.15;1.70;;;9.80;99.90;;;;;;6217833;28;20296;-76
2022/04/18 07:25:55;;;;;;;8.27;1.98;;;9.80;99.90;;;;;;6218167;28;20273;-76
2022/04/18 07:29:05;;;;;;;3.30;1.90;;;9.90;99.90;;;;;;6217942;28;20300;-77
2022/04/18 07:32:11;;;;;;;1.80;1.70;;;9.90;99.90;;;;;;6217771;28;20276;-78
2022/04/18 07:35:16;;;;;;;1.90;1.80;;;10.00;99.90;;;;;;6238113;28;20547;-76
2022/04/18 07:38:51;;;;;;;1.52;1.50;;;10.00;99.90;;;;;;6239345;28;20292;-76
2022/04/18 07:42:10;;;;;;;2.65;1.70;;;10.10;99.90;;;;;;6238070;28;20482;-76
2022/04/18 07:45:16;;;;;;;6.88;1.90;;;10.10;99.90;;;;;;6222422;28;20276;-76
2022/04/18 07:48:21;;;;;;;2.47;1.50;;;10.20;99.90;;;;;;6221670;28;20463;-76
2022/04/18 07:51:34;;;;;;;1.65;1.55;;;10.20;99.90;;;;;;6238367;28;20555;-76
2022/04/18 07:54:46;;;;;;;5.35;1.42;;;10.20;99.70;;;;;;6237668;28;20296;-76
2022/04/18 07:57:54;;;;;;;2.00;1.83;;;10.30;99.50;;;;;;6221758;28;20288;-76
2022/04/18 08:00:59;;;;;;;1.70;1.55;;;10.30;99.70;;;;;;6222124;28;20277;-77
2022/04/18 08:04:05;;;;;;;7.53;1.90;;;10.30;99.50;;;;;;6221737;28;20295;-77
2022/04/18 08:07:14;;;;;;;6.07;1.70;;;10.40;99.60;;;;;;6221040;28;20272;-76
2022/04/18 08:10:20;;;;;;;3.80;1.38;;;10.40;99.40;;;;;;6221753;28;20293;-76
2022/04/18 08:13:30;;;;;;;9.38;1.70;;;10.50;99.20;;;;;;6205239;28;20237;-77
2022/04/18 08:17:06;;;;;;;5.75;2.95;;;10.50;99.10;;;;;;6237860;28;20277;-78
2022/04/18 08:20:22;;;;;;;1.48;1.48;;;10.50;99.30;;;;;;6237884;28;20277;-77
2022/04/18 08:23:27;;;;;;;4.07;1.60;;;10.60;99.40;;;;;;6220568;28;20483;-77
2022/04/18 08:26:35;;;;;;;2.75;1.65;;;10.70;99.50;;;;;;6238909;28;20272;-77
2022/04/18 08:30:01;;;;;;;2.50;1.58;;;10.70;99.10;;;;;;6220597;28;20301;-77
2022/04/18 08:33:25;;;;;;;1.92;1.75;;;10.80;98.70;;;;;;6220174;28;20296;-77
2022/04/18 08:36:33;;;;;;;1.42;1.42;;;10.80;98.40;;;;;;6221268;28;20272;-78
2022/04/18 08:39:42;;;;;;;1.90;1.58;;;10.90;98.70;;;;;;6236969;28;20296;-78
2022/04/18 08:42:55;;;;;;;4.15;1.48;;;10.90;98.40;;;;;;6236309;28;20304;-77
2022/04/18 08:46:05;;;;;;;2.63;1.63;;;11.00;98.40;;;;;;6237085;28;20273;-77
2022/04/18 08:52:44;;;;;;;1.45;1.45;;;11.60;97.50;;;;;;6220087;28;20296;-77
2022/04/18 08:56:06;;;;;;;1.40;1.40;;;11.50;96.60;;;;;;6220612;28;20276;-76
2022/04/18 08:59:13;;;;;;;2.60;1.70;;;11.40;97.00;;;;;;6219899;28;20296;-77
2022/04/18 09:02:20;;;;;;;2.17;1.48;;;11.40;96.80;;;;;;6219883;28;20291;-77
2022/04/18 09:05:49;;;;;;;1.50;1.50;;;11.50;96.40;;;;;;6220239;28;20285;-77
2022/04/18 09:08:58;;;;;;;2.67;1.45;;;11.50;96.50;;;;;;6219884;28;20296;-77
2022/04/18 09:12:19;;;;;;;1.35;1.35;;;11.50;95.70;;;;;;6210822;28;20297;-77
2022/04/18 09:15:49;;;;;;;1.42;1.38;;;11.60;94.80;;;;;;6228540;28;20580;-77
2022/04/18 09:19:09;;;;;;;3.60;1.50;;;11.80;94.30;;;;;;6227786;28;20297;-77
2022/04/18 09:22:24;;;;;;;1.50;1.50;;;12.00;93.80;;;;;;6211340;28;20486;-77
2022/04/18 09:25:38;;;;;;;1.35;1.35;;;12.00;94.50;;;;;;6211995;28;20277;-77
2022/04/18 09:28:44;;;;;;;2.42;1.63;;;12.20;93.00;;;;;;6211288;28;20316;-77
2022/04/18 09:31:54;;;;;;;1.63;1.52;;;12.20;92.70;;;;;;6211808;28;20556;-77
2022/04/18 09:35:10;;;;;;;2.08;1.67;;;12.20;92.80;;;;;;6211030;28;20277;-78
2022/04/18 09:38:24;;;;;;;2.00;1.90;;;12.40;92.50;;;;;;6210573;28;20297;-77
2022/04/18 09:41:33;;;;;;;2.65;1.48;;;12.40;92.00;;;;;;6212645;28;20558;-77
2022/04/18 09:44:53;;;;;;;1.73;1.50;;;12.50;92.20;;;;;;6227207;28;20493;-77
2022/04/18 09:48:01;;;;;;;1.92;1.65;;;12.50;92.30;;;;;;6211156;28;20301;-77
2022/04/18 09:51:15;;;;;;;1.52;1.50;;;12.80;91.60;;;;;;6227609;28;20293;-79
2022/04/18 09:54:33;;;;;;;2.47;1.52;;;12.80;91.60;;;;;;6227162;28;20301;-77
2022/04/18 09:57:47;;;;;;;5.90;1.40;;;12.90;91.00;;;;;;6212033;28;20439;-77
2022/04/18 10:00:52;;;;;;;2.58;1.50;;;13.00;89.70;;;;;;6212802;28;20274;-77
2022/04/18 10:03:58;;;;;;;1.67;1.13;;;13.20;88.70;;;;;;6212274;28;20309;-77
2022/04/18 10:07:06;;;;;;;2.30;1.30;;;13.20;87.80;;;;;;6212835;28;20272;-76
2022/04/18 10:10:14;;;;;;;1.30;1.30;;;13.40;85.60;;;;;;6216239;28;20611;-76
2022/04/18 10:13:20;;;;;;;1.38;1.38;;;13.30;86.20;;;;;;6236060;28;20307;-76
2022/04/18 10:16:26;;;;;;;6.85;1.70;;;13.50;84.50;;;;;;6236130;28;20268;-78
2022/04/18 10:20:10;;;;;;;4.10;1.88;;;13.60;84.10;;;;;;6235643;28;20297;-76
2022/04/18 10:24:09;;;;;;;5.13;1.85;;;13.60;84.50;;;;;;6116207;28;20307;-76
2022/04/18 10:27:53;;;;;;;1.88;1.48;;;13.60;84.60;;;;;;6201233;28;20272;-77
2022/04/18 10:31:01;;;;;;;4.63;1.50;;;13.80;83.40;;;;;;6236283;28;20268;-77
2022/04/18 10:34:07;;;;;;;2.60;1.30;;;13.80;82.70;;;;;;6235551;28;20583;-77
2022/04/18 10:37:12;;;;;;;4.97;1.70;;;13.90;83.40;;;;;;6235436;28;20273;-77
2022/04/18 10:40:19;;;;;;;2.70;1.42;;;13.90;82.60;;;;;;6236180;28;20276;-77
2022/04/18 10:44:00;;;;;;;3.65;1.77;;;14.00;81.70;;;;;;6235526;28;20305;-78
2022/04/18 10:47:05;;;;;;;1.75;1.63;;;14.10;79.40;;;;;;6235103;28;20298;-77
2022/04/18 10:50:18;;;;;;;1.65;1.50;;;14.30;79.30;;;;;;6235988;28;20406;-77
2022/04/18 10:53:38;;;;;;;1.77;1.60;;;14.30;76.10;;;;;;6235488;28;20482;-77
2022/04/18 10:56:56;;;;;;;1.55;1.40;;;14.40;75.80;;;;;;6200322;28;20300;-78
2022/04/18 11:00:06;;;;;;;2.75;1.58;;;14.40;74.00;;;;;;6235383;28;20296;-78
2022/04/18 11:03:43;;;;;;;6.28;1.70;;;14.50;75.60;;;;;;6235123;28;20292;-78
2022/04/18 11:06:58;;;;;;;1.60;1.50;;;14.60;73.30;;;;;;6235644;28;20272;-78
2022/04/18 11:10:18;;;;;;;1.63;1.50;;;14.80;71.80;;;;;;6234760;28;20488;-77
2022/04/18 11:13:28;;;;;;;2.03;1.75;;;14.90;70.00;;;;;;6240233;28;20301;-77
2022/04/18 11:16:55;;;;;;;3.10;2.97;;;14.90;69.90;;;;;;6239966;28;20277;-77
2022/04/18 11:20:27;;;;;;;1.90;1.80;;;15.10;67.10;;;;;;6239834;28;20300;-78
2022/04/18 11:23:33;;;;;;;5.38;1.60;;;15.10;66.20;;;;;;6240353;28;20301;-78
2022/04/18 11:26:39;;;;;;;2.15;1.48;;;15.20;65.70;;;;;;6239121;28;20272;-78
2022/04/18 11:29:53;;;;;;;1.48;1.38;;;15.30;64.10;;;;;;6239891;28;20296;-78
2022/04/18 11:32:59;;;;;;;1.58;1.48;;;15.30;62.30;;;;;;6239262;28;20362;-78
2022/04/18 11:36:05;;;;;;;25.35;1.65;;;15.30;61.90;;;;;;6240241;28;20276;-78
2022/04/18 11:39:11;;;;;;;1.55;1.30;;;15.40;61.50;;;;;;6239801;28;20300;-78
2022/04/18 11:42:18;;;;;;;1.50;1.40;;;15.50;60.00;;;;;;6239516;28;20276;-78
2022/04/18 11:45:27;;;;;;;2.88;1.83;;;15.60;60.80;;;;;;6239891;28;20475;-78
2022/04/18 11:48:33;;;;;;;1.80;1.52;;;15.60;59.30;;;;;;6239547;28;20486;-79
2022/04/18 11:51:39;;;;;;;1.50;1.40;;;15.70;58.20;;;;;;6239564;28;20268;-78
2022/04/18 11:55:02;;;;;;;1.35;1.35;;;15.90;56.10;;;;;;6221665;28;20594;-78
2022/04/18 11:58:09;;;;;;;2.15;1.40;;;15.90;55.30;;;;;;6239203;28;20296;-77
2022/04/18 12:08:05;;;;;;;1.40;1.30;;;16.10;54.00;;;;;;6238490;28;20485;-78
2022/04/18 12:11:13;;;;;;;1.10;1.10;;;16.10;53.40;;;;;;6239063;28;20576;-79
2022/04/18 12:14:20;;;;;;;8.20;1.20;;;16.20;52.00;;;;;;6238514;28;20296;-78
2022/04/18 12:17:27;;;;;;;3.00;1.50;;;16.20;52.70;;;;;;6238669;28;20307;-80
2022/04/18 12:20:32;;;;;;;1.40;1.33;;;16.30;54.10;;;;;;6238409;28;20588;-80
2022/04/18 12:23:37;;;;;;;3.20;2.20;;;16.20;52.80;;;;;;6220611;28;20296;-77
2022/04/18 12:26:43;;;;;;;2.03;1.60;;;16.30;53.70;;;;;;6238603;28;20297;-78
2022/04/18 12:29:48;;;;;;;1.58;1.58;;;16.30;52.50;;;;;;6238014;28;20296;-78
2022/04/18 12:32:54;;;;;;;4.13;1.98;;;16.30;52.10;;;;;;6238182;28;20292;-78
2022/04/18 12:36:00;;;;;;;1.88;1.60;;;16.40;52.10;;;;;;6238725;28;20272;-78
2022/04/18 12:39:06;;;;;;;4.28;1.35;;;16.50;51.80;;;;;;6237631;28;20299;-78
2022/04/18 12:42:15;;;;;;;1.05;1.00;;;16.50;52.10;;;;;;6237830;28;20273;-77
2022/04/18 12:45:20;;;;;;;1.23;1.23;;;16.60;51.10;;;;;;6238166;28;20298;-77
2022/04/18 12:48:28;;;;;;;1.30;1.20;;;16.60;50.90;;;;;;6237422;28;20292;-78
2022/04/18 12:51:37;;;;;;;1.00;1.00;;;16.60;50.10;;;;;;6220765;28;20551;-78
2022/04/18 12:54:46;;;;;;;1.30;1.20;;;16.60;50.20;;;;;;6237223;28;20476;-78
2022/04/18 12:57:56;;;;;;;1.67;1.30;;;16.60;50.50;;;;;;6237739;28;20292;-78
2022/04/18 13:01:01;;;;;;;3.10;0.90;;;16.70;48.80;;;;;;6238134;28;20293;-78
2022/04/18 13:04:21;;;;;;;1.90;1.50;;;16.70;49.60;;;;;;6237231;28;20292;-77
2022/04/18 13:07:26;;;;;;;5.65;2.03;;;16.70;49.60;;;;;;6237222;28;20300;-78
2022/04/18 13:10:33;;;;;;;1.10;1.10;;;16.80;49.70;;;;;;6234958;28;20292;-78
2022/04/18 13:13:39;;;;;;;1.13;1.13;;;17.00;48.90;;;;;;6237214;28;20300;-78
2022/04/18 13:16:44;;;;;;;1.02;1.02;;;17.00;48.30;;;;;;6237445;28;20280;-78
2022/04/18 13:19:51;;;;;;;6.72;1.30;;;17.00;48.90;;;;;;6237077;28;20292;-78
2022/04/18 13:22:56;;;;;;;1.27;1.05;;;17.10;48.60;;;;;;6236942;28;20288;-79
2022/04/18 13:26:01;;;;;;;1.20;1.20;;;17.00;48.40;;;;;;6237689;28;20296;-79
2022/04/18 13:29:07;;;;;;;7.32;1.38;;;17.00;48.70;;;;;;6236587;28;20335;-79
2022/04/18 13:32:12;;;;;;;3.70;1.20;;;17.10;48.90;;;;;;6235388;28;20268;-80
2022/04/18 13:35:19;;;;;;;5.53;1.50;;;17.10;48.70;;;;;;6237377;28;20272;-78
2022/04/18 13:38:26;;;;;;;1.20;1.17;;;17.10;48.30;;;;;;6236857;28;20291;-78
2022/04/18 13:41:32;;;;;;;1.40;1.40;;;17.20;48.90;;;;;;6237085;28;20576;-78
2022/04/18 13:44:37;;;;;;;4.07;1.27;;;17.30;49.00;;;;;;6236410;28;20296;-79
2022/04/18 13:47:44;;;;;;;1.27;1.27;;;17.30;48.70;;;;;;6236782;28;20296;-81
2022/04/18 13:50:52;;;;;;;1.30;1.20;;;17.20;48.10;;;;;;6237019;28;20273;-81
2022/04/18 13:53:58;;;;;;;1.50;1.20;;;17.20;48.40;;;;;;6236347;28;20467;-81
2022/04/18 13:57:03;;;;;;;3.22;1.60;;;17.30;49.00;;;;;;6236517;28;20272;-82
2022/04/18 14:00:13;;;;;;;1.10;1.10;;;17.20;48.50;;;;;;6235977;28;20275;-82
2022/04/18 14:03:18;;;;;;;1.30;1.30;;;17.20;47.50;;;;;;6218279;28;20292;-81
2022/04/18 14:06:26;;;;;;;2.05;1.10;;;17.20;47.70;;;;;;6236453;28;20304;-81
2022/04/18 14:09:32;;;;;;;1.33;1.33;;;17.20;48.10;;;;;;6235749;28;20335;-83
2022/04/18 14:12:37;;;;;;;5.78;1.50;;;17.20;48.30;;;;;;6236014;28;20584;-85
2022/04/18 14:22:30;;;;;;;1.20;1.20;;;17.20;48.10;;;;;;6235686;28;20299;-68
2022/04/18 14:25:36;;;;;;;1.83;1.13;;;17.30;47.10;;;;;;6236414;28;20348;-69
2022/04/18 14:28:41;;;;;;;1.45;1.40;;;17.40;47.30;;;;;;6235216;28;20296;-68
2022/04/18 14:31:46;;;;;;;3.40;1.30;;;17.50;47.70;;;;;;6236001;28;20571;-69
2022/04/18 14:34:52;;;;;;;4.47;1.35;;;17.40;47.40;;;;;;6235521;28;20301;-69
2022/04/18 14:37:58;;;;;;;5.40;1.60;;;17.50;48.50;;;;;;6234944;28;20583;-68
2022/04/18 14:41:05;;;;;;;7.28;1.48;;;17.60;63.30;;;;;;6235975;28;20563;-69
2022/04/18 14:44:12;;;;;;;2.72;1.33;;;17.40;50.70;;;;;;6239757;28;20296;-69
2022/04/18 14:47:17;;;;;;;2.28;1.50;;;17.40;50.60;;;;;;6223116;28;20291;-69
2022/04/18 14:50:22;;;;;;;4.75;1.23;;;17.50;52.30;;;;;;6240636;28;20276;-69
2022/04/18 14:53:29;;;;;;;2.33;1.65;;;17.40;51.40;;;;;;6240343;28;20300;-69
2022/04/18 14:56:34;;;;;;;2.55;1.55;;;17.40;53.30;;;;;;6240790;28;20292;-68
2022/04/18 14:59:40;;;;;;;4.40;1.48;;;17.40;54.30;;;;;;6240113;28;20296;-69
2022/04/18 15:02:45;;;;;;;1.77;1.77;;;17.30;55.00;;;;;;6240313;28;20291;-68
2022/04/18 15:05:50;;;;;;;3.92;1.60;;;17.30;56.30;;;;;;6240441;28;20456;-69
2022/04/18 15:08:57;;;;;;;6.20;1.85;;;17.30;56.50;;;;;;6240586;28;20304;-70
2022/04/18 15:12:02;;;;;;;2.15;1.73;;;17.30;56.70;;;;;;6238198;28;20474;-69
2022/04/18 15:15:10;;;;;;;1.90;1.80;;;17.30;56.10;;;;;;6240187;28;20295;-68
2022/04/18 15:18:17;;;;;;;1.52;1.50;;;17.30;57.00;;;;;;6239911;28;20300;-69
2022/04/18 15:21:22;;;;;;;5.22;1.60;;;17.20;56.70;;;;;;6240396;28;20273;-69
2022/04/18 15:24:29;;;;;;;2.00;1.80;;;17.40;55.40;;;;;;6240050;28;20564;-68
2022/04/18 15:27:34;;;;;;;2.10;1.60;;;17.50;55.70;;;;;;6239805;28;20304;-69
2022/04/18 15:34:02;;;;;;;1.80;1.67;;;17.50;54.70;;;;;;6239726;28;20296;-70
2022/04/18 15:37:12;;;;;;;2.05;1.52;;;17.40;54.70;;;;;;6239101;28;20292;-70
2022/04/18 15:40:19;;;;;;;2.47;2.17;;;17.40;54.80;;;;;;6239902;28;20273;-70
2022/04/18 15:43:25;;;;;;;2.95;1.42;;;17.30;54.40;;;;;;6239611;28;20295;-70
2022/04/18 15:46:31;;;;;;;2.20;2.00;;;17.30;54.50;;;;;;6239968;28;20272;-69
2022/04/18 15:49:36;;;;;;;2.75;1.60;;;17.20;54.40;;;;;;6239187;28;20300;-69
2022/04/18 15:52:41;;;;;;;1.45;1.45;;;17.20;54.50;;;;;;6239091;28;20308;-68
2022/04/18 15:55:49;;;;;;;1.70;1.70;;;17.10;54.20;;;;;;6239019;28;20272;-67
2022/04/18 15:59:00;;;;;;;1.50;1.40;;;17.00;54.60;;;;;;6238920;28;20304;-68
2022/04/18 16:02:05;;;;;;;1.95;1.80;;;17.00;55.10;;;;;;6239555;28;20540;-70
2022/04/18 16:05:13;;;;;;;1.80;1.70;;;17.00;55.00;;;;;;6239437;28;20273;-68
2022/04/18 16:08:19;;;;;;;6.30;1.88;;;16.90;55.30;;;;;;6238366;28;20303;-68
2022/04/18 16:11:26;;;;;;;2.92;1.80;;;16.80;56.60;;;;;;6239010;28;20288;-69
2022/04/18 16:14:31;;;;;;;1.70;1.60;;;16.80;56.80;;;;;;6238238;28;20295;-67
2022/04/18 16:17:36;;;;;;;1.40;1.40;;;16.80;56.80;;;;;;6237931;28;20486;-68
2022/04/18 16:20:42;;;;;;;3.92;1.60;;;16.80;56.30;;;;;;6238446;28;20276;-67
2022/04/18 16:23:47;;;;;;;1.83;1.30;;;16.60;56.30;;;;;;6238535;28;20296;-68
2022/04/18 16:32:39;;;;;;;2.50;1.63;;;16.50;56.70;;;;;;6282349;28;20291;-69
2022/04/18 16:35:50;;;;;;;4.30;2.10;;;16.40;56.20;;;;;;6282365;28;20429;-68
2022/04/18 16:38:55;;;;;;;1.55;1.55;;;16.30;56.70;;;;;;6282080;28;20303;-69
2022/04/18 16:48:48;;;;;;;1.60;1.52;;;16.10;57.50;;;;;;6295940;28;20302;-69
2022/04/18 16:51:53;;;;;;;1.73;1.70;;;16.10;57.80;;;;;;6306719;28;20271;-68
2022/04/18 16:54:59;;;;;;;2.90;1.63;;;16.00;58.00;;;;;;6282459;28;20311;-67
2022/04/18 16:58:04;;;;;;;1.60;1.50;;;15.90;58.10;;;;;;6281574;28;20315;-69
2022/04/18 17:01:12;;;;;;;2.15;1.63;;;15.80;58.00;;;;;;6281667;28;20460;-67
2022/04/18 17:04:17;;;;;;;1.95;1.30;;;15.80;58.40;;;;;;6281158;28;20378;-68
2022/04/18 17:07:23;;;;;;;2.17;1.30;;;15.80;58.20;;;;;;6281375;28;20295;-68
2022/04/18 17:10:28;;;;;;;4.07;1.60;;;15.80;58.10;;;;;;6290929;28;20459;-67